createdAt,value
2019-04-21T00:01:37.656Z,11.12
2019-04-21T00:04:19.909Z,12.35
2019-04-21T00:06:58.770Z,9.38
2019-04-21T00:09:32.645Z,10.30
2019-04-21T00:12:02.536Z,14.68
2019-04-21T00:14:23.651Z,10.30
2019-04-21T00:16:55.600Z,11.70
2019-04-21T00:19:21.733Z,12.55
2019-04-21T00:21:55.336Z,11.45
2019-04-21T00:24:35.016Z,9.38
2019-04-21T00:27:12.542Z,14.25
2019-04-21T00:29:47.846Z,13.40
2019-04-21T00:32:10.512Z,14.07
2019-04-21T00:34:28.111Z,11.45
2019-04-21T00:37:11.017Z,13.90
2019-04-21T00:39:55.701Z,16.32
2019-04-21T00:42:19.947Z,8.18
2019-04-21T00:44:52.036Z,11.88
2019-04-21T00:47:33.022Z,13.32
2019-04-21T00:50:02.259Z,11.80
2019-04-21T00:52:49.205Z,13.05
2019-04-21T00:55:21.866Z,9.55
2019-04-21T01:00:20.240Z,11.55
2019-04-21T01:02:49.939Z,10.10
2019-04-21T01:05:21.348Z,10.13
2019-04-21T01:07:45.441Z,8.88
2019-04-21T01:10:14.914Z,7.55
2019-04-21T01:12:54.936Z,11.97
2019-04-21T01:17:56.021Z,9.48
2019-04-21T01:20:17.273Z,8.75
2019-04-21T01:22:43.039Z,9.05
2019-04-21T01:25:20.283Z,7.05
2019-04-21T01:27:59.715Z,11.57
2019-04-21T01:30:39.890Z,10.88
2019-04-21T01:33:12.401Z,10.82
2019-04-21T01:35:44.267Z,9.05
2019-04-21T01:38:19.174Z,11.68
2019-04-21T01:40:47.658Z,10.40
2019-04-21T01:43:13.666Z,9.25
2019-04-21T01:45:49.378Z,9.33
2019-04-21T01:48:22.893Z,8.08
2019-04-21T01:50:51.165Z,10.38
2019-04-21T01:53:48.580Z,9.85
2019-04-21T01:56:21.711Z,9.55
2019-04-21T01:58:42.904Z,8.58
2019-04-21T02:01:24.689Z,9.80
2019-04-21T02:03:56.961Z,8.90
2019-04-21T02:06:27.660Z,7.50
2019-04-21T02:08:58.080Z,10.72
2019-04-21T02:11:31.270Z,13.70
2019-04-21T02:14:12.918Z,10.80
2019-04-21T02:16:34.579Z,7.58
2019-04-21T02:19:04.416Z,7.00
2019-04-21T02:21:36.989Z,8.78
2019-04-21T02:24:25.454Z,9.25
2019-04-21T02:26:42.995Z,10.30
2019-04-21T02:29:17.355Z,8.25
2019-04-21T02:32:10.524Z,10.70
2019-04-21T02:34:23.907Z,9.60
2019-04-21T02:39:35.537Z,8.85
2019-04-21T02:42:05.611Z,11.68
2019-04-21T02:44:46.257Z,8.28
2019-04-21T02:47:05.212Z,10.78
2019-04-21T02:49:56.591Z,8.23
2019-04-21T02:59:59.955Z,10.23
2019-04-21T03:02:35.006Z,14.80
2019-04-21T03:05:21.042Z,7.92
2019-04-21T03:07:56.385Z,12.47
2019-04-21T03:10:22.300Z,10.58
2019-04-21T03:12:47.811Z,12.98
2019-04-21T03:15:21.909Z,8.60
2019-04-21T03:18:01.775Z,10.18
2019-04-21T03:20:23.851Z,9.03
2019-04-21T03:23:00.186Z,7.90
2019-04-21T03:38:14.711Z,9.58
2019-04-21T03:43:12.642Z,13.90
2019-04-21T03:48:24.160Z,13.68
2019-04-21T03:51:07.394Z,16.25
2019-04-21T03:55:53.450Z,13.38
2019-04-21T04:04:10.019Z,14.38
2019-04-21T04:06:24.546Z,13.70
2019-04-21T04:09:12.787Z,13.50
2019-04-21T04:11:37.776Z,14.60
2019-04-21T04:14:20.404Z,15.75
2019-04-21T04:16:37.191Z,13.13
2019-04-21T04:19:09.634Z,16.80
2019-04-21T04:24:36.125Z,13.72
2019-04-21T04:26:47.198Z,16.93
2019-04-21T04:29:22.457Z,14.35
2019-04-21T04:31:42.707Z,14.80
2019-04-21T04:34:41.671Z,15.98
2019-04-21T04:39:42.871Z,18.85
2019-04-21T04:42:16.354Z,15.13
2019-04-21T04:44:49.993Z,18.07
2019-04-21T04:47:10.292Z,14.35
2019-04-21T04:57:34.297Z,22.82
2019-04-21T05:02:27.812Z,17.23
2019-04-21T05:07:27.136Z,16.00
2019-04-21T05:09:52.236Z,17.98
2019-04-21T05:12:26.820Z,18.90
2019-04-21T05:14:51.805Z,21.57
2019-04-21T05:22:29.050Z,17.27
2019-04-21T05:24:53.759Z,22.20
2019-04-21T05:27:48.280Z,19.52
2019-04-21T05:30:29.122Z,20.68
2019-04-21T05:33:18.791Z,18.67
2019-04-21T05:35:55.478Z,18.20
2019-04-21T05:41:05.132Z,17.30
2019-04-21T05:43:43.033Z,22.87
2019-04-21T05:46:21.231Z,19.40
2019-04-21T05:49:08.034Z,17.82
2019-04-21T05:51:30.608Z,17.23
2019-04-21T05:54:19.310Z,25.02
2019-04-21T05:56:40.790Z,19.10
2019-04-21T05:59:12.218Z,26.20
2019-04-21T06:01:46.731Z,16.37
2019-04-21T06:04:26.510Z,20.50
2019-04-21T06:06:55.427Z,15.58
2019-04-21T06:09:19.039Z,16.52
2019-04-21T06:11:51.620Z,13.03
2019-04-21T06:14:21.696Z,16.45
2019-04-21T06:16:58.754Z,15.50
2019-04-21T06:19:36.708Z,14.68
2019-04-21T06:22:28.972Z,17.35
2019-04-21T06:25:31.123Z,15.30
2019-04-21T06:27:37.726Z,18.80
2019-04-21T06:30:10.436Z,14.00
2019-04-21T06:32:49.120Z,15.78
2019-04-21T06:35:39.953Z,13.88
2019-04-21T06:38:03.796Z,15.00
2019-04-21T06:40:42.551Z,15.85
2019-04-21T06:43:18.246Z,14.93
2019-04-21T06:45:39.988Z,17.92
2019-04-21T06:48:12.216Z,14.33
2019-04-21T06:50:46.638Z,18.37
2019-04-21T06:53:20.684Z,14.38
2019-04-21T06:55:44.114Z,12.45
2019-04-21T06:58:18.384Z,11.63
2019-04-21T07:00:50.960Z,14.78
2019-04-21T07:03:29.716Z,15.70
2019-04-21T07:06:03.543Z,14.60
2019-04-21T07:08:51.482Z,16.45
2019-04-21T07:10:59.171Z,13.15
2019-04-21T07:13:31.229Z,16.70
2019-04-21T07:16:04.784Z,13.53
2019-04-21T07:18:34.305Z,13.98
2019-04-21T07:21:06.422Z,14.68
2019-04-21T07:23:40.503Z,14.55
2019-04-21T07:26:10.413Z,14.05
2019-04-21T07:28:49.753Z,15.60
2019-04-21T07:31:31.487Z,14.03
2019-04-21T07:33:53.435Z,14.75
2019-04-21T07:36:21.854Z,12.45
2019-04-21T07:38:45.249Z,10.15
2019-04-21T07:41:13.585Z,9.28
2019-04-21T07:43:55.285Z,10.13
2019-04-21T07:46:27.325Z,15.80
2019-04-21T07:49:11.118Z,12.35
2019-04-21T07:51:47.650Z,14.70
2019-04-21T07:54:26.854Z,13.25
2019-04-21T07:56:35.032Z,9.35
2019-04-21T07:59:21.302Z,9.90
2019-04-21T08:01:55.022Z,11.18
2019-04-21T08:04:42.454Z,11.05
2019-04-21T08:06:55.435Z,12.98
2019-04-21T08:09:26.050Z,19.00
2019-04-21T08:11:53.319Z,25.70
2019-04-21T08:17:03.164Z,14.63
2019-04-21T08:19:38.333Z,13.60
2019-04-21T08:22:12.515Z,13.58
2019-04-21T08:24:43.757Z,13.30
2019-04-21T08:27:12.056Z,14.38
2019-04-21T08:29:46.520Z,12.70
2019-04-21T08:32:14.505Z,12.60
2019-04-21T08:34:55.185Z,15.75
2019-04-21T08:37:18.305Z,13.50
2019-04-21T08:40:05.099Z,14.18
2019-04-21T08:42:27.124Z,14.87
2019-04-21T08:44:55.816Z,15.68
2019-04-21T08:47:25.532Z,11.88
2019-04-21T08:50:02.151Z,12.05
2019-04-21T08:52:42.748Z,13.70
2019-04-21T08:55:19.344Z,10.58
2019-04-21T08:58:03.937Z,10.95
2019-04-21T09:00:35.949Z,17.85
2019-04-21T09:03:11.786Z,14.63
2019-04-21T09:05:39.354Z,13.15
2019-04-21T09:08:13.770Z,14.55
2019-04-21T09:10:40.006Z,13.40
2019-04-21T09:13:10.127Z,14.23
2019-04-21T09:15:41.890Z,15.60
2019-04-21T09:18:17.295Z,11.22
2019-04-21T09:20:55.307Z,18.00
2019-04-21T09:23:19.403Z,20.72
2019-04-21T09:25:55.407Z,14.45
2019-04-21T09:28:20.061Z,19.07
2019-04-21T09:30:43.319Z,17.10
2019-04-21T09:33:09.275Z,18.55
2019-04-21T09:35:50.134Z,16.77
2019-04-21T09:38:22.733Z,15.95
2019-04-21T09:40:48.982Z,16.95
2019-04-21T09:43:27.032Z,22.80
2019-04-21T09:45:47.831Z,18.73
2019-04-21T09:48:21.051Z,14.60
2019-04-21T09:50:50.411Z,19.42
2019-04-21T09:53:28.746Z,17.48
2019-04-21T09:55:58.113Z,17.10
2019-04-21T09:58:32.873Z,18.02
2019-04-21T10:01:07.489Z,15.03
2019-04-21T10:03:39.665Z,14.65
2019-04-21T10:06:00.677Z,14.28
2019-04-21T10:08:31.857Z,12.82
2019-04-21T10:11:03.279Z,10.85
2019-04-21T10:13:34.478Z,15.70
2019-04-21T10:16:18.166Z,13.55
2019-04-21T10:18:48.347Z,16.73
2019-04-21T10:21:19.786Z,16.25
2019-04-21T10:23:50.141Z,17.27
2019-04-21T10:26:20.386Z,16.07
2019-04-21T10:28:51.023Z,16.17
2019-04-21T10:31:21.261Z,18.77
2019-04-21T10:33:52.521Z,14.83
2019-04-21T10:36:22.817Z,16.25
2019-04-21T10:38:53.998Z,16.27
2019-04-21T10:41:25.557Z,23.25
2019-04-21T10:43:55.807Z,17.50
2019-04-21T10:46:26.658Z,16.42
2019-04-21T10:48:56.942Z,19.80
2019-04-21T10:51:27.053Z,18.90
2019-04-21T10:53:57.964Z,18.35
2019-04-21T10:56:34.371Z,17.00
2019-04-21T10:59:00.331Z,14.20
2019-04-21T11:01:31.496Z,16.70
2019-04-21T11:04:19.571Z,16.95
2019-04-21T11:06:42.108Z,15.18
2019-04-21T11:09:13.756Z,15.23
2019-04-21T11:11:46.486Z,15.68
2019-04-21T11:14:15.876Z,16.93
2019-04-21T11:16:47.686Z,13.95
2019-04-21T11:19:18.139Z,14.45
2019-04-21T11:21:49.313Z,12.65
2019-04-21T11:24:20.822Z,13.22
2019-04-21T11:26:51.970Z,12.65
2019-04-21T11:29:23.286Z,11.30
2019-04-21T11:31:54.753Z,13.03
2019-04-21T11:34:25.173Z,12.47
2019-04-21T11:36:56.347Z,13.25
2019-04-21T11:39:37.575Z,12.45
2019-04-21T11:42:03.656Z,13.32
2019-04-21T11:44:35.193Z,12.33
2019-04-21T11:47:07.106Z,14.50
2019-04-21T11:49:37.257Z,11.35
2019-04-21T11:52:07.326Z,11.83
2019-04-21T11:54:37.559Z,12.35
2019-04-21T11:57:14.015Z,12.80
2019-04-21T11:59:39.667Z,19.98
2019-04-21T12:02:09.870Z,13.18
2019-04-21T12:04:41.205Z,10.23
2019-04-21T12:07:11.529Z,12.43
2019-04-21T12:09:41.794Z,11.57
2019-04-21T12:12:12.053Z,10.35
2019-04-21T12:14:42.235Z,15.93
2019-04-21T12:17:14.140Z,12.60
2019-04-21T12:19:44.766Z,10.95
2019-04-21T12:22:21.279Z,12.70
2019-04-21T12:24:49.067Z,12.23
2019-04-21T12:27:20.368Z,9.20
2019-04-21T12:29:51.663Z,13.70
2019-04-21T12:32:33.751Z,9.55
2019-04-21T12:35:06.112Z,13.45
2019-04-21T12:37:37.176Z,10.58
2019-04-21T12:40:08.511Z,11.10
2019-04-21T12:42:40.857Z,8.08
2019-04-21T12:45:13.106Z,18.75
2019-04-21T12:47:44.004Z,16.57
2019-04-21T12:50:14.861Z,10.68
2019-04-21T12:52:47.347Z,12.37
2019-04-21T12:55:17.822Z,10.03
2019-04-21T12:57:48.037Z,8.75
2019-04-21T13:00:22.817Z,11.83
2019-04-21T13:02:53.980Z,9.00
2019-04-21T13:05:25.484Z,9.70
2019-04-21T13:07:55.790Z,13.32
2019-04-21T13:10:26.424Z,9.03
2019-04-21T13:12:56.613Z,10.60
2019-04-21T13:15:27.350Z,11.73
2019-04-21T13:17:58.475Z,9.90
2019-04-21T13:20:29.736Z,8.88
2019-04-21T13:22:59.878Z,10.95
2019-04-21T13:25:31.749Z,10.32
2019-04-21T13:28:02.901Z,9.43
2019-04-21T13:30:33.097Z,10.05
2019-04-21T13:33:03.312Z,10.38
2019-04-21T13:35:35.099Z,9.03
2019-04-21T13:38:17.300Z,9.90
2019-04-21T13:41:10.736Z,10.72
2019-04-21T13:43:27.257Z,10.18
2019-04-21T13:45:57.653Z,8.93
2019-04-21T13:48:28.616Z,9.73
2019-04-21T13:50:59.539Z,10.45
2019-04-21T13:53:31.111Z,9.98
2019-04-21T13:56:02.602Z,8.68
2019-04-21T13:58:32.859Z,11.38
2019-04-21T14:01:03.502Z,8.08
2019-04-21T14:03:33.767Z,11.73
2019-04-21T14:06:04.537Z,8.95
2019-04-21T14:08:59.024Z,9.38
2019-04-21T14:11:29.339Z,9.35
2019-04-21T14:14:00.592Z,11.38
2019-04-21T14:16:32.044Z,9.20
2019-04-21T14:19:03.374Z,9.93
2019-04-21T14:21:33.778Z,9.20
2019-04-21T14:24:05.166Z,8.73
2019-04-21T14:26:36.274Z,8.53
2019-04-21T14:29:07.637Z,9.93
2019-04-21T14:31:38.253Z,10.18
2019-04-21T14:34:08.537Z,11.28
2019-04-21T14:36:38.962Z,11.97
2019-04-21T14:39:10.640Z,10.70
2019-04-21T14:41:42.121Z,9.33
2019-04-21T14:44:13.196Z,10.08
2019-04-21T14:46:49.234Z,11.12
2019-04-21T14:49:23.742Z,11.63
2019-04-21T14:52:00.972Z,10.85
2019-04-21T14:54:33.173Z,10.98
2019-04-21T14:57:03.542Z,11.33
2019-04-21T14:59:35.203Z,9.05
2019-04-21T15:02:05.744Z,15.00
2019-04-21T15:04:37.574Z,8.98
2019-04-21T15:07:09.547Z,11.55
2019-04-21T15:09:41.552Z,8.73
2019-04-21T15:12:11.873Z,8.45
2019-04-21T15:14:42.287Z,11.03
2019-04-21T15:17:15.372Z,8.60
2019-04-21T15:19:50.906Z,7.37
2019-04-21T15:22:16.501Z,10.13
2019-04-21T15:24:48.025Z,8.48
2019-04-21T15:27:18.998Z,8.98
2019-04-21T15:29:49.119Z,9.63
2019-04-21T15:32:19.324Z,8.25
2019-04-21T15:34:49.896Z,9.13
2019-04-21T15:37:20.124Z,9.35
2019-04-21T15:39:51.180Z,7.62
2019-04-21T15:42:21.349Z,8.83
2019-04-21T15:44:52.443Z,9.68
2019-04-21T15:47:22.520Z,9.03
2019-04-21T15:50:02.771Z,7.72
2019-04-21T15:52:28.024Z,8.33
2019-04-21T15:55:05.503Z,10.15
2019-04-21T15:57:54.315Z,7.30
2019-04-21T16:00:42.695Z,7.85
2019-04-21T16:03:16.569Z,7.00
2019-04-21T16:05:46.819Z,7.25
2019-04-21T16:08:18.258Z,7.65
2019-04-21T16:10:54.914Z,7.08
2019-04-21T16:13:21.600Z,7.60
2019-04-21T16:15:52.504Z,6.75
2019-04-21T16:18:24.413Z,7.30
2019-04-21T16:20:55.803Z,7.30
2019-04-21T16:23:26.650Z,10.23
2019-04-21T16:25:57.088Z,6.12
2019-04-21T16:28:42.468Z,6.70
2019-04-21T16:31:20.315Z,8.40
2019-04-21T16:33:51.276Z,8.30
2019-04-21T16:36:21.545Z,5.83
2019-04-21T16:38:53.635Z,6.22
2019-04-21T16:41:24.407Z,6.80
2019-04-21T16:43:55.420Z,7.05
2019-04-21T16:46:25.533Z,5.83
2019-04-21T16:48:55.970Z,6.28
2019-04-21T16:51:28.455Z,8.20
2019-04-21T16:54:01.790Z,5.58
2019-04-21T16:56:37.428Z,5.20
2019-04-21T16:59:10.610Z,8.93
2019-04-21T17:01:42.728Z,4.83
2019-04-21T17:04:13.019Z,8.15
2019-04-21T17:06:45.019Z,9.15
2019-04-21T17:09:16.669Z,9.45
2019-04-21T17:11:48.520Z,6.78
2019-04-21T17:14:35.497Z,8.65
2019-04-21T17:17:15.754Z,6.55
2019-04-21T17:19:29.131Z,7.25
2019-04-21T17:21:55.283Z,12.58
2019-04-21T17:24:26.455Z,9.48
2019-04-21T17:26:57.432Z,13.35
2019-04-21T17:29:28.721Z,8.05
2019-04-21T17:31:59.690Z,5.97
2019-04-21T17:34:32.547Z,11.00
2019-04-21T17:37:03.580Z,14.00
2019-04-21T17:39:34.601Z,8.60
2019-04-21T17:42:13.959Z,10.18
2019-04-21T17:44:37.357Z,6.20
2019-04-21T17:47:19.232Z,10.48
2019-04-21T17:49:41.027Z,6.37
2019-04-21T17:52:18.174Z,5.22
2019-04-21T17:54:51.190Z,7.80
2019-04-21T17:57:39.273Z,14.18
2019-04-21T18:00:14.096Z,6.20
2019-04-21T18:02:47.937Z,9.20
2019-04-21T18:05:17.967Z,9.75
2019-04-21T18:07:47.826Z,9.43
2019-04-21T18:10:19.065Z,7.97
2019-04-21T18:12:43.574Z,8.13
2019-04-21T18:15:21.848Z,7.70
2019-04-21T18:17:38.707Z,7.47
2019-04-21T18:20:12.083Z,12.20
2019-04-21T18:23:00.497Z,11.45
2019-04-21T18:25:45.180Z,8.30
2019-04-21T18:28:04.912Z,6.97
2019-04-21T18:30:48.727Z,6.95
2019-04-21T18:33:25.076Z,11.97
2019-04-21T18:36:01.944Z,10.70
2019-04-21T18:39:01.233Z,10.50
2019-04-21T18:41:13.473Z,8.30
2019-04-21T18:44:28.804Z,13.22
2019-04-21T18:46:58.710Z,15.00
2019-04-21T18:49:17.386Z,19.90
2019-04-21T18:52:02.499Z,14.30
2019-04-21T18:54:47.080Z,16.15
2019-04-21T18:57:07.876Z,10.53
2019-04-21T18:59:36.103Z,12.65
2019-04-21T19:02:08.055Z,10.82
2019-04-21T19:04:37.574Z,11.78
2019-04-21T19:07:20.096Z,12.25
2019-04-21T19:10:19.104Z,13.45
2019-04-21T19:12:47.978Z,8.83
2019-04-21T19:15:02.430Z,11.97
2019-04-21T19:22:38.704Z,13.25
2019-04-21T19:25:12.938Z,12.20
2019-04-21T19:27:45.201Z,9.40
2019-04-21T19:30:21.674Z,10.53
2019-04-21T19:32:45.194Z,10.75
2019-04-21T19:35:01.639Z,12.13
2019-04-21T19:37:40.081Z,14.20
2019-04-21T19:40:15.820Z,12.35
2019-04-21T19:42:43.779Z,9.78
2019-04-21T19:45:22.407Z,13.22
2019-04-21T19:48:01.000Z,13.75
2019-04-21T19:50:35.065Z,16.37
2019-04-21T19:52:51.911Z,16.62
2019-04-21T19:55:16.066Z,11.95
2019-04-21T19:57:47.069Z,11.55
2019-04-21T20:00:18.971Z,11.93
2019-04-21T20:02:50.439Z,8.75
2019-04-21T20:05:30.416Z,17.87
2019-04-21T20:08:08.319Z,10.10
2019-04-21T20:10:47.205Z,11.40
2019-04-21T20:13:26.118Z,12.95
2019-04-21T20:15:44.704Z,12.98
2019-04-21T20:18:14.055Z,11.90
2019-04-21T20:20:32.785Z,12.15
2019-04-21T20:23:03.163Z,13.05
2019-04-21T20:25:41.754Z,14.83
2019-04-21T20:28:13.292Z,10.53
2019-04-21T20:30:59.556Z,11.28
2019-04-21T20:33:48.729Z,9.50
2019-04-21T20:36:02.170Z,9.68
2019-04-21T20:38:26.447Z,11.22
2019-04-21T20:40:56.711Z,9.28
2019-04-21T20:43:38.064Z,9.25
2019-04-21T20:46:08.250Z,9.35
2019-04-21T20:48:34.062Z,8.88
2019-04-21T20:51:25.620Z,10.93
2019-04-21T20:53:43.887Z,10.20
2019-04-21T20:56:08.628Z,8.63
2019-04-21T20:58:45.156Z,13.65
2019-04-21T21:03:47.902Z,8.18
2019-04-21T21:06:19.513Z,10.28
2019-04-21T21:08:49.923Z,9.68
2019-04-21T21:11:28.014Z,9.73
2019-04-21T21:14:00.379Z,12.37
2019-04-21T21:16:29.657Z,14.03
2019-04-21T21:21:32.731Z,11.50
2019-04-21T21:24:05.404Z,13.58
2019-04-21T21:26:36.944Z,12.95
2019-04-21T21:28:57.547Z,13.60
2019-04-21T21:31:37.191Z,10.95
2019-04-21T21:34:15.296Z,13.62
2019-04-21T21:36:43.200Z,11.10
2019-04-21T21:39:15.776Z,12.45
2019-04-21T21:41:36.827Z,13.43
2019-04-21T21:44:05.871Z,13.32
2019-04-21T21:46:44.132Z,14.70
2019-04-21T21:49:20.789Z,11.43
2019-04-21T21:51:47.243Z,12.98
2019-04-21T21:54:09.626Z,14.78
2019-04-21T21:56:40.797Z,11.38
2019-04-21T21:59:16.477Z,12.10
2019-04-21T22:01:46.995Z,11.12
2019-04-21T22:04:20.957Z,14.40
2019-04-21T22:06:57.581Z,10.95
2019-04-21T22:09:18.626Z,18.20
2019-04-21T22:11:53.559Z,12.85
2019-04-21T22:14:28.287Z,13.32
2019-04-21T22:17:10.700Z,12.33
2019-04-21T22:19:41.720Z,9.98
2019-04-21T22:22:16.863Z,15.18
2019-04-21T22:24:41.446Z,12.23
2019-04-21T22:26:59.456Z,12.60
2019-04-21T22:29:39.195Z,12.33
2019-04-21T22:32:09.515Z,9.83
2019-04-21T22:34:40.295Z,11.48
2019-04-21T22:37:21.223Z,12.43
2019-04-21T22:39:54.313Z,14.13
2019-04-21T22:42:17.332Z,11.43
2019-04-21T22:44:40.652Z,13.55
2019-04-21T22:47:17.195Z,14.03
2019-04-21T22:49:42.688Z,10.68
2019-04-21T22:52:18.697Z,13.62
2019-04-21T22:54:46.746Z,15.93
2019-04-21T22:57:19.846Z,14.00
2019-04-21T22:59:54.862Z,16.32
2019-04-21T23:02:25.911Z,11.75
2019-04-21T23:04:57.660Z,12.33
2019-04-21T23:07:24.724Z,14.63
2019-04-21T23:09:55.563Z,13.90
2019-04-21T23:12:29.669Z,12.15
2019-04-21T23:15:05.838Z,13.35
2019-04-21T23:17:50.195Z,10.03
2019-04-21T23:20:22.649Z,16.05
2019-04-21T23:23:00.862Z,11.97
2019-04-21T23:25:24.478Z,14.25
2019-04-21T23:27:56.211Z,10.85
2019-04-21T23:30:33.812Z,14.80
2019-04-21T23:32:50.215Z,13.30
2019-04-21T23:35:21.824Z,10.43
2019-04-21T23:37:55.667Z,12.18
2019-04-21T23:40:21.813Z,11.97
2019-04-21T23:42:51.228Z,9.90
2019-04-21T23:45:25.148Z,13.08
2019-04-21T23:48:08.060Z,11.75
2019-04-21T23:50:34.216Z,10.75
2019-04-21T23:52:57.466Z,10.48
2019-04-21T23:55:27.688Z,10.45
2019-04-21T23:58:06.999Z,10.60
